X  Luk Metar data     YMML Melbourne International Airport
Temperatur
12°C Temperatur
10°C Duggpunkt
88% Fugtighed



Vind
11 KM/T
7 MPT
3 M/S
6 KNOB



210°
SSV
Nuværende forhold

Delvis skyet Delvis skyet
Tryk 1011.92 (hPa) - 29.88 (inHg)
Sigt 6.2 (mil) - 10 (km)
Lufthavn
Lufthavnskode YMML

Lokation: Melbourne International Airport
Afstand: 18 (km)

Metar:
YMML 262300Z 21006KT 9999 FEW009 BKN030 12/10 Q1012

Tid: 27-09-2022 09:00 AEST